Gaslog data for The White Car

Go Back   Gas Savers - Fuel Efficiency Forum > Garage > The White Car
Add Garage Entry Top Ten Entries Search the Garage


Welcome, non logged-in user
Your Garage


Gaslog data for The White Car
Date Distance Fuel Used Cost of Fuel Notes MPG(US)
08/11/2008 360.8 11.275 0 32
08/07/2008 145.2 4.575 0 31.73
08/06/2008 145.4 4.802 0 30.27
08/05/2008 145.1 4.163 0limiting speed to 70mph on interstate, no A/C. One days drive, need backup tank. 34.85
08/04/2008 322.4 10.908 0Driving "normally" - speed wise. With the flow of traffic, A/C use when desired. 29.55
07/31/2008 334 11.311 0Driving however fast I felt like going. Many miles well above the limit and faster than the flow of traffic. Much fun... 29.52
07/28/2008 234.4 7.653 0 30.62
07/25/2008 319 9.78 0Limiting speed to 65mph on interstates, no A/C. I think the last tank was slightly underfilled by the pump... 32.61
07/23/2008 158 4.286 0Driving 70mph, no A/C. Filled up at different location than last tank, doubting this number based on the next tank. 36.86
07/23/2008 290 9.185 0 31.57
07/21/2008 281 10.38 0 27.07
07/18/2008 331 11.109 0 29.79
07/16/2008 321 10.476 0 30.64
07/14/2008 378 13.044 0 28.97
07/10/2008 343 12.446 0 27.55
06/27/2008 328 11.366 0 28.85
06/24/2008 326 11.334 0 28.76
06/22/2008 148 4.436 0 33.36
06/20/2008 328 11.069 0 29.63
06/18/2008 271 8.494 0 31.90
06/14/2008 324 11.439 0 28.32
06/10/2008 330 11.141 0 29.62
06/08/2008 359 12.62 0 28.44
06/03/2008 358 11.872 0 30.15
05/22/2008 402 13.351 0 30.11
05/13/2008 343 11.938 0 28.73
05/08/2008 322 11.876 0 27.11
05/03/2008 349 11.309 0 30.86
05/01/2008 325 11.603 0 28.00
04/20/2008 163 5.093 0 32.00
04/19/2008 247 7.923 0 31.17
04/19/2008 173 6.035 0 28.66
04/13/2008 273.3 9.286 0 29.43
04/06/2008 113.7 4.674 0 24.32
04/05/2008 290.7 10.611 0 27.39
03/28/2008 347.5 13.07 0 26.58
03/19/2008 305.8 11.469 0 26.66
03/13/2008 272 10.345 0 26.29
03/01/2008 268.9 10.389 0 25.88
02/20/2008 338.8 12.739 0 26.59
02/12/2008 307.5 12.243 0 25.11
01/30/2008 295.8 11.478 0 25.77
01/26/2008 246.6 9.424 0 26.16
01/15/2008 138.8 5.74 0 24.18
01/09/2008 298 11.601 0 25.68
01/01/2008 309.4 12.52 0 24.71
12/27/2007 233 9.43 0 24.70
12/27/2007 297 11.312 0 26.25
12/27/2007 233 8.482 0 27.46
12/23/2007 323 12.165 0 26.55
12/23/2007 162 6.77 0 23.92
12/15/2007 294 11.688 0 25.15
12/04/2007 305 12.804 0 23.82
11/25/2007 195 7.089 0 27.50
11/25/2007 340 12.259 0 27.73
11/25/2007 103 3.843 0 26.80
11/24/2007 304 10.924 0 27.82
11/21/2007 269 9.458 0 28.44
11/21/2007 163 6.469 0 25.19
11/13/2007 306 12.291 3.059 24.89
10/20/2007 326 12.504 2.879 26.07
10/10/2007 159 6.142 2.789 25.88
10/04/2007 302 10.267 2.789 29.41
09/27/2007 340 11.715 2.989 29.02
09/17/2007 316 10.834 2.959 29.16
09/12/2007 298.1 9.554 3.039 31.20
08/27/2007 268.1 8.278 2.899 32.38
08/23/2007 333.2 11.178 2.899ugh, I had been hoping for better but two trips downtown really put a hurt on the FE. 29.80
08/07/2007 156.1 4.691 2.799Trip to pick up a new driveshaft for my Caddy. Includes ~50 miles at 80-90mph because I was running late. Took the return trip at the speed limit as pennance. Seems to have worked since this is nearly a lifetime record tank :)33.27
08/06/2007 231.2 7.063 2.829:)32.73
07/26/2007 342.1 11.439 2.879First tank of day-to-day driving, still learning the traffic flow though. 29.90
07/14/2007 279 10.296 3.199Getting things set up in my new place and becoming familiar with a new area. Not usual driving. 27.09
05/23/2007 325 9.856 3.499 32.97
05/20/2007 256 8.247 3.299 31.04
05/19/2007 231 7.153 3.389 32.29
05/18/2007 294 10.645 3.499 27.61
05/17/2007 350 11.838 3.369interstate arrived in Detroit29.56
05/16/2007 367 13.144 3.149interstate27.92
05/16/2007 288 9.938 3.389interstate28.97
05/15/2007 131 4.535 3.219interstate28.88
05/15/2007 307 11.543 3.159more interstate26.59
05/14/2007 204 6.554 3.149First tank on trip to Detroit31.12
05/14/2007 369 12.807 3.098interstate travel, 80-85mph28.81
05/14/2007 123 4.119 3.139 29.86
05/11/2007 309.8 10.063 3.069 30.78
05/04/2007 306.2 10.258 3.069had to let off some steam on a little twisty road... Highest price I have personally ever paid for gas, but at least not the highest cost per mile thanks to my mileage improvements. 29.84
04/30/2007 147 4.751 2.989Cruising at 70mph when possible30.94
04/27/2007 396.4 12.904 2.889Second 30mpg tank in a row, very cool. Also a record distance for me on one tank and record MPG for my commuting route (even with a few shorter trips to town thrown in) I credit this mostly to warmer weather and the new tranny and its lower gears because I have fewer aero mods and have been driving a bit less cautiously than before. Need to add some more aero :)30.71
04/20/2007 326.1 10.802 3.829 30.18
04/12/2007 312.3 10.739 2.739First tank with the new trans. Definately rolls longer due to the engine turning lower RPM. Impressed with the mileage on this tank because it was very windy and I had the rear wheel skirts and front gap fillers off (months old cardboard and duct tape + high winds are not friends!) Need to make these mods permanant and solidly break past 30. 29.08
04/09/2007 80.1 2.848 2.739Calamity strikes! Blew out a freeze plug so I've been off the road for some weeks. Scratch this tank for mileage, filled up early so it doesn't mess up my next tank. Having the car apart gave me a chance to swap in the higher geared trans and bigger front brakes though, so not all is bad... 28.12
03/16/2007 226.7 7.392 2.439First tank above 30 in my usual driving area. Rear fender skirts and front fender gap fillers on. 30.66
03/15/2007 217 7.42 2.439Back to all season tires on this tank, inflated to 35psi. 2/3 of this tank was without rear fender skirts, 1/3 was with rear fender skirts and front fender gap fillers. 29.24
03/12/2007 144.5 4.894 2.439 29.52
03/08/2007 325.5 11.172 2.349Hooray for warm weather! 29.13
03/01/2007 361.2 12.551 2.249 28.77
02/23/2007 288.3 10.121 2.169Added prototype rear fender skirts and filled gap between rear bumper and trunk well28.48
02/17/2007 144.4 5.03 10.71two day tank with grille block v2.0 on. just my normal driving route but had a massive headwind on one days return trip (or 1/4 of the total driving) so I'm really happy with the mpg here. 28.70
02/15/2007 116.7 4.099 2.109First tank with new grille block. Full upper grille is blocked this time with cardboard on the outside. http://rides.webshots.com/photo/2791828370083184085umrCMS?vhost=rides Two trips into town on this one, ~20% city driving. 28.47
02/13/2007 145.7 5.203 2.109aerodynamically stock. :/ Reset computer. 28.00
02/10/2007 216.6 7.683 2.109wet 'n' windy. Tried some ignition off coasting on this tank. Estimate 5.8 miles coasting based on odometer reading minus usual miles (no odometer with the ignition off) Thinking about an injector cutoff even though it will throw a code. oil change after this tank28.19
02/06/2007 264 9.057 2.109includes ~100mi of slower open-road driving (45-55mph vs regular 65) due to snow. Filled up with pump at lower flow rate. Might make the auto shut-off more consistent due to less fuel splash during filling? 29.14
02/02/2007 360.8 12.888 2.109first tank with aero mods - grille block and bellypan. Disappointed. 27.99
01/29/2007 34.1 1.752 2.109Quick fill up after adding aero mods so I can see their effect. Mostly city driving on this tank. 19.46
01/26/2007 302.7 10.807 2.159First full tank with new exhaust28.00
01/22/2007 86.8 3.229 2.189Quick fill up after having new exhaust installed. 2.5" from the engine back with a hi-flow catalyst and 'turbo-style' muffler. Computer was reset after exhaust install. 26.88
01/18/2007 293 11.058 2.229 26.49
01/12/2007 298.3 11.055 2.309 26.98
01/05/2007 143.4 5.392 2.359Not sure why I filled up early on this one. 26.59
01/02/2007 251.7 9.013 2.359 27.92
12/21/2006 34.4 1.27 2.399 27.08
12/19/2006 289.9 10.728 2.389 27.02
12/12/2006 256.4 9.447 2.349 27.14
12/08/2006 143.1 5.608 2.339backup run for WAI test with intake hose reconnected. I think the tank didn't get 100% full last fill up. 25.51
12/06/2006 137.8 4.566 2.339disconnected factory cold air hose for just this tank to try WAI. Short run, huge change and winter weather forcing lower speeds makes me doubt results. Need to retest later when weather is more steady, lol. 30.17
12/04/2006 297.4 10.893 2.339 27.30
11/26/2006 288.1 10.602 2.349put on the snow tires five miles into this tank. First snow of the season. 195/70-14, non-studded. (summers are 205/60-15) These tires are noisy but better than wrecking on the highway. 27.17
11/19/2006 303.1 11.1 2.339finally ran wires so the cruise controll will work with the 5-sp swap. oil change (5W30 synth)27.30
11/12/2006 72.6 2.811 2.349 25.82
11/12/2006 244.4 8.086 2.349Road trip to Spokane. Flatter ground than usual. 30.22
11/09/2006 303.6 10.881 2.349 27.90


All times are GMT -6. The time now is 02:23 PM.


Copyright 2005-2008 GasSavers.Org